Latest Coastal Weather Observations for Maningrida Airport

IDD60701

Issued at 4:41 am CST Friday 20 April 2018 (issued every 10 minutes, with the page automatically refreshed every 10 minutes)

About coastal observations | Map of coastal stations | Coastal observations for NT | Marine services | Other Formats
Station Details ID: 014405 Name: MANINGRIDA AIRPORT Lat: -12.06 Lon: 134.23 Height: 28.1 m
Data from the previous 72 hours. | See also: Recent months at Maningrida Airport
Date/Time
CST
Temp
°C
Wind Pressure Rain since
9am
mm
Weather Cloud Vis
km
Sea
Height
m
Swell
Dir  Spd
kts
Gust
kts
hPa Trend Height
m
Period
s
Dir
20/04:30am 24.1 SSE 4 5 1008.7 - 5.8 - Cloudy 10 - - - -
20/04:00am 23.9 SSE 4 6 1008.7 - 5.8 - Partly cloudy 10 - - - -
20/03:30am 23.8 S 4 6 1008.9 - 5.8 - Partly cloudy 10 - - - -
20/03:00am 23.8 S 4 7 1009.0 - 5.8 - Mostly clear 10 - - - -
20/02:30am 23.9 S 5 6 1009.5 - 5.8 - - 10 - - - -
20/02:00am 24.1 S 5 8 1009.8 - 5.8 - - 10 - - - -
20/01:30am 24.1 SSE 6 8 1009.8 - 5.8 - Partly cloudy 10 - - - -
20/01:00am 23.9 S 5 6 1010.0 - 5.8 - Partly cloudy 10 - - - -
20/12:30am 24.0 S 5 7 1010.2 - 5.8 - Partly cloudy 10 - - - -
20/12:00am 24.2 SSE 5 7 1010.3 - 5.8 - Mostly clear 10 - - - -
 
Date/Time
CST
Temp
°C
Wind Pressure Rain since
9am
mm
Weather Cloud Vis
km
Sea
Height
m
Swell
Dir  Spd
kts
Gust
kts
hPa Trend Height
m
Period
s
Dir
19/11:30pm 24.4 S 6 9 1010.4 - 5.8 - - 10 - - - -
19/11:00pm 24.1 S 5 7 1010.9 - 5.8 - Partly cloudy 10 - - - -
19/10:30pm 24.3 S 5 6 1011.0 - 5.8 - - 10 - - - -
19/10:00pm 24.4 SSW 4 6 1011.1 - 5.8 - - 10 - - - -
19/09:30pm 24.5 S 5 7 1011.0 - 5.8 - - 10 - - - -
19/09:00pm 24.6 S 4 6 1010.9 - 5.8 Drizzle Cloudy 10 - - - -
19/08:30pm 24.5 S 5 8 1010.5 - 5.8 - - 10 - - - -
19/08:00pm 24.5 SSW 5 6 1010.3 - 5.8 - - 10 - - - -
19/07:30pm 24.4 S 4 7 1009.9 - 5.8 - Partly cloudy 10 - - - -
19/07:00pm 24.5 S 6 9 1009.4 - 5.8 - Partly cloudy 10 - - - -
19/06:30pm 24.4 SE 9 11 1009.3 - 5.8 - Partly cloudy 10 - - - -
19/06:00pm 24.4 SE 9 13 1009.1 - 5.8 Showers Cloudy 10 - - - -
19/05:51pm 24.6 SE 11 15 1009.3 - 5.6 - Partly cloudy 10 - - - -
19/05:30pm 24.1 SE 16 21 1009.3 - 4.4 - Partly cloudy 2 - - - -
19/05:06pm 25.5 ESE 18 31 1008.9 - 1.0 - Partly cloudy 5 - - - -
19/05:04pm 26.0 E 16 31 1008.9 - 0.6 - Partly cloudy 7 - - - -
19/05:02pm 27.5 E 13 27 1008.6 - 0.0 - Partly cloudy 10 - - - -
19/05:00pm 29.9 ENE 11 23 1008.3 - 0.0 - Partly cloudy 10 - - - -
19/04:30pm 30.9 ENE 8 12 1007.9 - 0.0 - - 10 - - - -
19/04:00pm 30.6 NE 11 16 1007.9 - 0.0 - Partly cloudy 10 - - - -
19/03:30pm 31.5 NE 9 14 1007.7 - 0.0 - Partly cloudy 10 - - - -
19/03:00pm 31.4 NE 10 16 1007.6 - 0.0 - - 10 - - - -
19/02:30pm 31.8 ENE 8 13 1007.8 - 0.0 - - 10 - - - -
19/02:00pm 31.7 NE 10 15 1008.2 - 0.0 - - 10 - - - -
19/01:30pm 31.7 E 9 15 1008.7 - 0.0 - Partly cloudy 10 - - - -
19/01:00pm 31.5 ENE 9 14 1009.0 - 0.0 - Partly cloudy 10 - - - -
19/12:30pm 31.1 ESE 9 13 1009.5 - 0.0 - Partly cloudy 10 - - - -
19/12:00pm 30.5 E 9 13 1010.1 - 0.0 - Cloudy 10 - - - -
19/11:30am 30.5 ESE 11 15 1010.4 - 0.0 - Partly cloudy 10 - - - -
19/11:00am 30.5 ESE 11 17 1010.7 - 0.0 - Partly cloudy 10 - - - -
19/10:30am 29.8 ESE 11 15 1011.0 - 0.0 - - 10 - - - -
19/10:00am 29.5 ESE 10 15 1011.1 - 0.0 - - 10 - - - -
19/09:30am 28.3 SE 10 16 1011.3 - 0.0 - - 10 - - - -
19/09:00am 27.8 SE 9 12 1011.1 - - - - 10 - - - -
19/08:30am 26.9 SE 9 12 1011.0 - - - - 10 - - - -
19/08:00am 25.2 SSE 7 10 1010.8 - - - - 10 - - - -
19/07:30am 24.5 SSE 7 9 1010.6 - - - - 10 - - - -
19/07:00am 23.8 SSE 6 8 1010.2 - - - - 10 - - - -
19/06:30am 23.7 SSE 7 8 1009.8 - - - - 10 - - - -
19/06:00am 23.9 SE 6 7 1009.5 - - - Cloudy 10 - - - -
19/05:30am 23.8 S 5 6 1009.3 - - - - 10 - - - -
19/05:00am 23.9 S 5 8 1008.8 - - - - 10 - - - -
19/04:30am 24.0 S 5 7 1008.5 - - - - 10 - - - -
19/04:00am 24.1 SSE 6 9 1008.4 - - - - 10 - - - -
19/03:30am 23.9 SSE 6 8 1008.2 - - - - 10 - - - -
19/03:00am 23.8 SSE 5 8 1008.5 - 0.0 - Cloudy 10 - - - -
19/02:30am 23.6 S 5 8 1008.8 - - - - 10 - - - -
19/02:00am 23.4 SSW 5 7 1008.9 - - - - 10 - - - -
19/01:30am 23.6 SW 5 7 1009.3 - - - - 10 - - - -
19/01:00am 23.6 SSW 5 6 1009.8 - - - - 10 - - - -
19/12:30am 23.8 SSE 6 8 1010.2 - - - - 10 - - - -
19/12:00am 23.9 SE 7 8 1010.5 - - Drizzle Cloudy 10 - - - -
 
Date/Time
CST
Temp
°C
Wind Pressure Rain since
9am
mm
Weather Cloud Vis
km
Sea
Height
m
Swell
Dir  Spd
kts
Gust
kts
hPa Trend Height
m
Period
s
Dir
18/11:30pm 23.8 SSE 5 7 1011.0 - - - - 10 - - - -
18/11:00pm 23.9 SSE 5 6 1011.4 - - - Partly cloudy 10 - - - -
18/10:30pm 23.9 ESE 5 7 1011.8 - - - Partly cloudy 10 - - - -
18/10:00pm 23.9 SE 6 9 1012.3 - - - Partly cloudy 10 - - - -
18/09:30pm 23.8 SE 10 13 1012.1 - - - Partly cloudy 10 - - - -
18/09:00pm 24.0 SSE 12 15 1011.7 - 31.0 Rain Cloudy 10 - - - -
18/08:30pm 24.3 SE 11 14 1011.6 - - - Partly cloudy 10 - - - -
18/08:09pm 24.0 SE 9 12 1011.2 - - - Partly cloudy 10 - - - -
18/08:00pm 24.0 SSE 7 10 1011.1 - - - Partly cloudy 6 - - - -
18/07:30pm 23.9 SE 6 10 1010.6 - - - Partly cloudy 5 - - - -
18/07:14pm 23.8 SE 8 11 1009.9 - - - Partly cloudy 5 - - - -
18/07:00pm 23.8 ESE 9 13 1010.1 - - - Partly cloudy 6 - - - -
18/06:30pm 23.6 SSE 5 7 1010.6 - - - Partly cloudy 7 - - - -
18/06:15pm 23.7 ESE 7 11 1010.2 - - - Partly cloudy 8 - - - -
18/06:12pm 23.6 ESE 8 12 1010.2 - - - Partly cloudy 8 - - - -
18/06:00pm 23.4 ESE 13 21 1010.2 - - Showers Cloudy 4 - - - -
18/05:36pm 23.9 ESE 16 28 1009.8 - - - Partly cloudy 1 - - - -
18/05:35pm 24.0 SE 16 22 1009.7 - - - Partly cloudy 1 - - - -
18/05:30pm 24.2 SE 18 30 1009.6 - - - Partly cloudy 2 - - - -
18/05:25pm 24.4 SE 19 30 1009.3 - - - Partly cloudy 5 - - - -
18/05:18pm 25.6 ESE 14 26 1009.0 - - - Partly cloudy 10 - - - -
18/05:17pm 25.9 ESE 13 23 1009.1 - - - Partly cloudy 10 - - - -
18/05:00pm 29.5 ENE 9 13 1008.2 - - - Partly cloudy 10 - - - -
18/04:30pm 29.8 ENE 9 14 1007.9 - - - Partly cloudy 10 - - - -
18/04:00pm 30.3 ENE 10 16 1007.8 - - - Partly cloudy 10 - - - -
18/03:30pm 29.6 ENE 11 16 1007.7 - - - Partly cloudy 10 - - - -
18/03:00pm 30.8 NE 11 15 1007.7 - - - Partly cloudy 10 - - - -
18/02:30pm 32.7 NE 9 16 1007.7 - - - Partly cloudy 10 - - - -
18/02:00pm 33.0 E 7 11 1008.1 - - - Partly cloudy 10 - - - -
18/01:30pm 31.8 ENE 7 11 1008.6 - - - - 10 - - - -
18/09:30am 31.0 ESE 7 10 1011.1 - 0.0 - Partly cloudy 10 - - - -
18/09:00am 29.1 ESE 6 10 1011.1 - 0.0 - Partly cloudy 10 - - - -
18/08:30am 28.0 SE 7 10 1011.2 - 0.0 - Partly cloudy 10 - - - -
18/08:00am 27.2 SSE 8 14 1010.6 - 0.0 - - 10 - - - -
18/07:30am 25.9 S 5 7 1010.3 - 0.0 - - 10 - - - -
18/07:00am 25.3 SSE 5 8 1010.0 - 0.0 - - 10 - - - -
18/06:30am 25.5 SE 7 9 1009.7 - 0.0 - - 10 - - - -
18/06:00am 25.4 SSE 7 9 1009.0 - 0.0 - - 10 - - - -
18/05:30am 25.7 SE 8 11 1008.9 - 0.0 - - 10 - - - -
18/05:00am 25.9 SSE 8 11 1008.8 - 0.0 - Partly cloudy 10 - - - -
18/04:30am 26.2 SSE 7 10 1009.3 - 0.0 - Partly cloudy 10 - - - -
18/04:00am 26.4 SSE 6 9 1009.3 - 0.0 - Cloudy 10 - - - -
18/03:30am 26.0 SSE 5 7 1009.5 - 0.0 - Partly cloudy 10 - - - -
18/03:00am 25.9 S 5 7 1009.6 - 0.0 - - 10 - - - -
18/02:30am 25.9 S 5 7 1009.6 - 0.0 - - 10 - - - -
18/02:00am 26.1 S 5 6 1009.8 - 0.0 - - 10 - - - -
18/01:30am 26.2 SSE 4 7 1010.0 - 0.0 - - 10 - - - -
18/01:00am 26.3 SSE 3 5 1010.1 - 0.0 - - 10 - - - -
18/12:30am 26.6 S 4 5 1010.4 - 0.0 - Partly cloudy 10 - - - -
18/12:00am 26.9 S 4 5 1010.6 - 0.0 - Partly cloudy 10 - - - -
 
Date/Time
CST
Temp
°C
Wind Pressure Rain since
9am
mm
Weather Cloud Vis
km
Sea
Height
m
Swell
Dir  Spd
kts
Gust
kts
hPa Trend Height
m
Period
s
Dir
17/11:30pm 27.1 S 5 8 1010.7 - 0.0 - Partly cloudy 10 - - - -
17/11:00pm 27.4 S 5 6 1010.6 - 0.0 - Partly cloudy 10 - - - -
17/10:30pm 27.7 SSE 5 6 1010.8 - 0.0 - Partly cloudy 10 - - - -
17/10:00pm 27.9 S 5 7 1010.7 - 0.0 - Partly cloudy 10 - - - -
17/09:30pm 28.2 SSE 5 7 1010.7 - 0.0 - Partly cloudy 10 - - - -
17/09:00pm 28.4 S 4 6 1010.3 - 0.0 - Partly cloudy 10 - - - -
17/08:30pm 28.9 ESE 4 6 1009.8 - 0.0 - Partly cloudy 10 - - - -
17/08:00pm 29.1 E 4 6 1009.3 - 0.0 - Partly cloudy 10 - - - -
17/07:30pm 29.3 E 3 5 1008.9 - 0.0 - Partly cloudy 10 - - - -
17/07:00pm 29.4 NE 5 6 1008.3 - 0.0 - - 10 - - - -
17/06:30pm 29.7 ENE 6 9 1008.2 - 0.0 - - 10 - - - -
17/06:00pm 30.3 NE 8 10 1007.9 - 0.0 - - 10 - - - -
17/05:30pm 31.2 ENE 7 11 1007.8 - 0.0 - - 10 - - - -
17/05:00pm 31.5 NE 8 11 1007.6 - 0.0 - - 10 - - - -
17/04:30pm 32.4 ENE 8 11 1007.4 - 0.0 - - 10 - - - -
17/04:00pm 33.0 NNE 9 13 1007.3 - 0.0 - - 10 - - - -
17/03:30pm 33.2 ENE 8 13 1007.3 - 0.0 - - 10 - - - -
17/03:00pm 33.1 ENE 9 14 1007.6 - 0.0 - - 10 - - - -
17/02:30pm 33.3 ENE 8 13 1007.8 - 0.0 - - 10 - - - -
17/02:00pm 33.2 ENE 10 17 1008.2 - 0.0 - Partly cloudy 10 - - - -
17/01:30pm 33.5 ENE 9 13 1008.5 - 0.0 - Partly cloudy 10 - - - -
17/01:00pm 32.1 E 7 15 1008.9 - 0.0 - Partly cloudy 10 - - - -
17/12:30pm 32.5 ESE 8 10 1009.3 - 0.0 - Partly cloudy 10 - - - -
17/12:00pm 32.3 ESE 10 14 1009.7 - 0.0 - Mostly clear 10 - - - -
17/11:30am 31.5 SE 12 15 1010.0 - 0.0 - Partly cloudy 10 - - - -
17/11:00am 31.6 ESE 13 19 1010.4 - 0.0 - Partly cloudy 10 - - - -
17/10:30am 31.5 SE 13 19 1010.5 - 0.0 - Partly cloudy 10 - - - -
17/10:00am 31.0 ESE 10 16 1010.7 - 0.0 - Partly cloudy 10 - - - -
17/09:30am 30.1 ESE 11 21 1010.7 - 0.0 - - 10 - - - -
17/09:00am 29.7 SE 7 11 1010.7 - 0.0 - - 10 - - - -
17/08:30am 28.4 SE 9 11 1010.5 - 0.0 - - 10 - - - -
17/08:00am 27.3 SSE 8 12 1010.4 - 0.0 - - 10 - - - -
17/07:30am 25.6 SSE 5 7 1010.3 - 0.0 - - 10 - - - -
17/07:00am 24.1 S 4 5 1009.9 - 0.0 - - 10 - - - -
17/06:30am 24.0 S 3 4 1009.7 - 0.0 - - 10 - - - -
17/06:00am 24.4 S 4 6 1009.4 - 0.0 - - 10 - - - -
17/05:30am 24.5 S 5 7 1009.3 - 0.0 - - 10 - - - -
17/05:00am 24.6 SSE 5 7 1009.1 - 0.0 - - 10 - - - -

Other Formats:

Comma delimited format used in spreadsheet applications
http://www.bom.gov.au/fwo/IDD60701/IDD60701.95142.axf

JavaScript Object Notation format (JSON) in row-major order
http://www.bom.gov.au/fwo/IDD60701/IDD60701.95142.json